Time,TemperatureF,DewpointF,PressureIn,WindDirection,WindDirectionDegrees,WindSpeedMPH,WindSpeedGustMPH,Humidity,HourlyPrecipIn,Conditions,Clouds,dailyrainin,SoftwareType,DateUTC
2013-09-08 00:07:00,55.4,54.3,29.86,SW,225,0.0,-999.0,96,-99.99,,,0.00,Acu-Link.com,2013-09-08 04:07:00,
2013-09-08 00:22:00,56.3,54.6,29.86,NNE,22,0.0,-999.0,94,-99.99,,,0.00,Acu-Link.com,2013-09-08 04:22:00,
2013-09-08 00:37:00,56.8,55.1,29.86,North,0,0.0,-999.0,94,-99.99,,,0.00,Acu-Link.com,2013-09-08 04:37:00,
2013-09-08 00:52:00,57.2,55.2,29.85,NNW,337,2.7,-999.0,93,-99.99,,,0.00,Acu-Link.com,2013-09-08 04:52:00,
2013-09-08 01:07:00,56.5,54.8,29.85,West,270,2.2,-999.0,94,-99.99,,,0.00,Acu-Link.com,2013-09-08 05:07:00,
2013-09-08 01:23:00,56.8,55.1,29.86,WNW,292,0.0,-999.0,94,-99.99,,,0.00,Acu-Link.com,2013-09-08 05:23:00,
2013-09-08 01:38:00,56.7,55.0,29.86,NNE,22,0.0,-999.0,94,-99.99,,,0.00,Acu-Link.com,2013-09-08 05:38:00,
2013-09-08 01:53:00,56.1,54.7,29.86,ENE,67,0.0,-999.0,95,-99.99,,,0.00,Acu-Link.com,2013-09-08 05:53:00,
2013-09-08 02:08:00,55.4,54.0,29.86,South,180,0.0,-999.0,95,-99.99,,,0.00,Acu-Link.com,2013-09-08 06:08:00,
2013-09-08 02:23:00,55.2,54.1,29.86,SSE,157,0.0,-999.0,96,-99.99,,,0.00,Acu-Link.com,2013-09-08 06:23:00,
2013-09-08 02:38:00,55.2,54.1,29.86,NW,315,0.0,-999.0,96,-99.99,,,0.00,Acu-Link.com,2013-09-08 06:38:00,
2013-09-08 02:53:00,54.9,54.1,29.85,NNW,337,0.0,-999.0,97,-99.99,,,0.00,Acu-Link.com,2013-09-08 06:53:00,
2013-09-08 03:08:00,54.5,53.7,29.85,SSW,202,0.0,-999.0,97,-99.99,,,0.00,Acu-Link.com,2013-09-08 07:08:00,
2013-09-08 03:23:00,55.0,54.2,29.85,North,0,0.0,-999.0,97,-99.99,,,0.00,Acu-Link.com,2013-09-08 07:23:00,
2013-09-08 03:39:00,55.4,54.6,29.86,WNW,292,0.0,-999.0,97,-99.99,,,0.00,Acu-Link.com,2013-09-08 07:39:00,
2013-09-08 03:54:00,55.0,54.2,29.86,NW,315,0.0,-999.0,97,-99.99,,,0.00,Acu-Link.com,2013-09-08 07:54:00,
2013-09-08 04:10:00,55.0,54.2,29.86,SSE,157,0.0,-999.0,97,-99.99,,,0.00,Acu-Link.com,2013-09-08 08:10:00,
2013-09-08 04:26:00,55.0,54.2,29.86,SSE,157,0.0,-999.0,97,-99.99,,,0.00,Acu-Link.com,2013-09-08 08:26:00,
2013-09-08 04:41:00,55.2,54.4,29.85,SSE,157,0.0,-999.0,97,-99.99,,,0.00,Acu-Link.com,2013-09-08 08:41:00,
2013-09-08 04:57:00,55.4,54.6,29.86,SE,135,0.0,-999.0,97,-99.99,,,0.00,Acu-Link.com,2013-09-08 08:57:00,
2013-09-08 05:12:00,55.9,55.1,29.86,SW,225,0.0,-999.0,97,-99.99,,,0.00,Acu-Link.com,2013-09-08 09:12:00,
2013-09-08 05:27:00,56.7,55.9,29.86,SW,225,0.0,-999.0,97,-99.99,,,0.00,Acu-Link.com,2013-09-08 09:27:00,
2013-09-08 05:42:00,56.7,55.9,29.86,SSE,157,0.0,-999.0,97,-99.99,,,0.00,Acu-Link.com,2013-09-08 09:42:00,
2013-09-08 05:57:00,56.7,55.9,29.87,SSW,202,0.0,-999.0,97,-99.99,,,0.00,Acu-Link.com,2013-09-08 09:57:00,
2013-09-08 06:12:00,56.7,55.9,29.87,SW,225,0.0,-999.0,97,-99.99,,,0.00,Acu-Link.com,2013-09-08 10:12:00,
2013-09-08 06:28:00,56.8,56.0,29.87,SW,225,0.0,-999.0,97,-99.99,,,0.00,Acu-Link.com,2013-09-08 10:28:00,
2013-09-08 06:43:00,56.7,55.9,29.87,SW,225,0.0,-999.0,97,-99.99,,,0.00,Acu-Link.com,2013-09-08 10:43:00,
2013-09-08 06:58:00,56.5,55.7,29.87,SW,225,0.0,-999.0,97,-99.99,,,0.00,Acu-Link.com,2013-09-08 10:58:00,
2013-09-08 07:13:00,56.5,55.7,29.87,NE,45,0.0,-999.0,97,-99.99,,,0.00,Acu-Link.com,2013-09-08 11:13:00,
2013-09-08 07:28:00,56.5,55.7,29.88,NE,45,0.0,-999.0,97,-99.99,,,0.00,Acu-Link.com,2013-09-08 11:28:00,
2013-09-08 07:44:00,56.3,55.5,29.88,ENE,67,0.0,-999.0,97,-99.99,,,0.00,Acu-Link.com,2013-09-08 11:44:00,
2013-09-08 07:59:00,56.8,56.2,29.87,ENE,67,0.0,-999.0,98,-99.99,,,0.00,Acu-Link.com,2013-09-08 11:59:00,
2013-09-08 08:14:00,58.3,57.7,29.88,NNE,22,0.0,-999.0,98,-99.99,,,0.00,Acu-Link.com,2013-09-08 12:14:00,
2013-09-08 08:29:00,60.1,59.5,29.88,NNE,22,0.0,-999.0,98,-99.99,,,0.00,Acu-Link.com,2013-09-08 12:29:00,
2013-09-08 08:44:00,61.3,60.4,29.88,NW,315,0.0,-999.0,97,-99.99,,,0.00,Acu-Link.com,2013-09-08 12:44:00,
2013-09-08 08:59:00,62.2,61.0,29.88,NNE,22,0.0,-999.0,96,-99.99,,,0.00,Acu-Link.com,2013-09-08 12:59:00,
2013-09-08 09:16:00,65.1,63.3,29.88,WNW,292,1.7,-999.0,94,-99.99,,,0.00,Acu-Link.com,2013-09-08 13:16:00,
2013-09-08 09:32:00,66.2,63.2,29.88,East,90,1.7,-999.0,90,-99.99,,,0.00,Acu-Link.com,2013-09-08 13:32:00,
2013-09-08 09:47:00,67.5,63.8,29.89,North,0,0.0,-999.0,88,-99.99,,,0.00,Acu-Link.com,2013-09-08 13:47:00,
2013-09-08 10:02:00,68.2,64.2,29.89,NE,45,1.1,-999.0,87,-99.99,,,0.00,Acu-Link.com,2013-09-08 14:02:00,
2013-09-08 10:17:00,69.3,64.3,29.89,SE,135,1.7,-999.0,84,-99.99,,,0.00,Acu-Link.com,2013-09-08 14:17:00,
2013-09-08 10:33:00,70.7,65.3,29.89,NE,45,3.7,-999.0,83,-99.99,,,0.00,Acu-Link.com,2013-09-08 14:33:00,
2013-09-08 10:48:00,70.5,65.4,29.89,North,0,2.7,-999.0,84,-99.99,,,0.00,Acu-Link.com,2013-09-08 14:48:00,
2013-09-08 11:06:00,72.1,65.9,29.88,ESE,112,3.2,-999.0,81,-99.99,,,0.00,Acu-Link.com,2013-09-08 15:06:00,
2013-09-08 11:21:00,73.8,66.5,29.89,East,90,4.2,-999.0,78,-99.99,,,0.00,Acu-Link.com,2013-09-08 15:21:00,
2013-09-08 11:38:00,74.3,67.4,29.87,NE,45,3.2,-999.0,79,-99.99,,,0.00,Acu-Link.com,2013-09-08 15:38:00,
2013-09-08 11:54:00,75.7,68.7,29.87,NE,45,1.7,-999.0,79,-99.99,,,0.00,Acu-Link.com,2013-09-08 15:54:00,
2013-09-08 12:11:00,75.0,67.7,29.87,NE,45,3.2,-999.0,78,-99.99,,,0.00,Acu-Link.com,2013-09-08 16:11:00,
2013-09-08 12:26:00,76.1,68.4,29.87,NE,45,1.1,-999.0,77,-99.99,,,0.00,Acu-Link.com,2013-09-08 16:26:00,
2013-09-08 12:43:00,76.5,68.4,29.86,East,90,1.7,-999.0,76,-99.99,,,0.00,Acu-Link.com,2013-09-08 16:43:00,
2013-09-08 12:58:00,75.9,67.8,29.85,North,0,2.2,-999.0,76,-99.99,,,0.00,Acu-Link.com,2013-09-08 16:58:00,
2013-09-08 13:13:00,79.0,69.2,29.85,WSW,247,1.7,-999.0,72,-99.99,,,0.00,Acu-Link.com,2013-09-08 17:13:00,
2013-09-08 13:28:00,79.2,69.0,29.85,West,270,4.2,-999.0,71,-99.99,,,0.00,Acu-Link.com,2013-09-08 17:28:00,
2013-09-08 13:44:00,77.9,68.1,29.85,WNW,292,3.7,-999.0,72,-99.99,,,0.00,Acu-Link.com,2013-09-08 17:44:00,
2013-09-08 13:59:00,80.2,67.8,29.85,East,90,2.2,-999.0,66,-99.99,,,0.00,Acu-Link.com,2013-09-08 17:59:00,
2013-09-08 14:14:00,80.6,69.9,29.85,NE,45,2.7,-999.0,70,-99.99,,,0.00,Acu-Link.com,2013-09-08 18:14:00,
2013-09-08 14:29:00,80.6,69.0,29.85,West,270,1.7,-999.0,68,-99.99,,,0.00,Acu-Link.com,2013-09-08 18:29:00,
2013-09-08 14:45:00,79.7,66.4,29.84,NE,45,4.7,-999.0,64,-99.99,,,0.00,Acu-Link.com,2013-09-08 18:45:00,
2013-09-08 15:00:00,79.9,68.4,29.84,ENE,67,2.7,-999.0,68,-99.99,,,0.00,Acu-Link.com,2013-09-08 19:00:00,
2013-09-08 15:15:00,84.0,69.1,29.85,ENE,67,2.2,-999.0,61,-99.99,,,0.00,Acu-Link.com,2013-09-08 19:15:00,
2013-09-08 15:30:00,83.1,68.2,29.83,NNE,22,3.7,-999.0,61,-99.99,,,0.00,Acu-Link.com,2013-09-08 19:30:00,
2013-09-08 15:45:00,81.9,69.8,29.84,WNW,292,0.0,-999.0,67,-99.99,,,0.00,Acu-Link.com,2013-09-08 19:45:00,
2013-09-08 16:00:00,81.3,67.9,29.84,WNW,292,0.0,-999.0,64,-99.99,,,0.00,Acu-Link.com,2013-09-08 20:00:00,
2013-09-08 16:18:00,82.2,66.9,29.83,NE,45,2.7,-999.0,60,-99.99,,,0.00,Acu-Link.com,2013-09-08 20:18:00,
2013-09-08 16:34:00,81.5,68.1,29.83,NE,45,0.0,-999.0,64,-99.99,,,0.00,Acu-Link.com,2013-09-08 20:34:00,
2013-09-08 16:50:00,83.7,68.3,29.84,NNW,337,2.2,-999.0,60,-99.99,,,0.00,Acu-Link.com,2013-09-08 20:50:00,
2013-09-08 17:07:00,82.9,69.4,29.83,ESE,112,1.7,-999.0,64,-99.99,,,0.00,Acu-Link.com,2013-09-08 21:07:00,
2013-09-08 17:22:00,84.0,68.6,29.83,West,270,0.0,-999.0,60,-99.99,,,0.00,Acu-Link.com,2013-09-08 21:22:00,
2013-09-08 17:37:00,81.1,70.4,29.83,WSW,247,0.0,-999.0,70,-99.99,,,0.00,Acu-Link.com,2013-09-08 21:37:00,
2013-09-08 17:52:00,85.6,69.1,29.82,SW,225,0.0,-999.0,58,-99.99,,,0.00,Acu-Link.com,2013-09-08 21:52:00,
2013-09-08 18:07:00,81.5,69.5,29.83,West,270,0.0,-999.0,67,-99.99,,,0.00,Acu-Link.com,2013-09-08 22:07:00,
2013-09-08 18:22:00,81.5,69.5,29.83,South,180,0.0,-999.0,67,-99.99,,,0.00,Acu-Link.com,2013-09-08 22:22:00,
2013-09-08 18:37:00,81.1,69.5,29.84,West,270,0.0,-999.0,68,-99.99,,,0.00,Acu-Link.com,2013-09-08 22:37:00,
2013-09-08 18:52:00,75.7,68.3,29.85,North,0,0.0,-999.0,78,-99.99,,,0.00,Acu-Link.com,2013-09-08 22:52:00,
2013-09-08 19:08:00,73.8,67.9,29.85,WNW,292,0.0,-999.0,82,-99.99,,,0.00,Acu-Link.com,2013-09-08 23:08:00,
2013-09-08 19:23:00,73.0,67.5,29.85,NNW,337,0.0,-999.0,83,-99.99,,,0.00,Acu-Link.com,2013-09-08 23:23:00,
2013-09-08 19:38:00,70.7,66.0,29.85,NE,45,0.0,-999.0,85,-99.99,,,0.00,Acu-Link.com,2013-09-08 23:38:00,
2013-09-08 19:53:00,68.4,64.4,29.85,NE,45,0.0,-999.0,87,-99.99,,,0.00,Acu-Link.com,2013-09-08 23:53:00,
2013-09-08 20:09:00,66.9,63.9,29.86,NE,45,0.0,-999.0,90,-99.99,,,0.00,Acu-Link.com,2013-09-09 00:09:00,
2013-09-08 20:24:00,66.0,63.0,29.86,NE,45,0.0,-999.0,90,-99.99,,,0.00,Acu-Link.com,2013-09-09 00:24:00,
2013-09-08 20:41:00,65.1,62.7,29.86,ENE,67,0.0,-999.0,92,-99.99,,,0.00,Acu-Link.com,2013-09-09 00:41:00,
2013-09-08 20:56:00,64.6,62.2,29.87,NE,45,0.0,-999.0,92,-99.99,,,0.00,Acu-Link.com,2013-09-09 00:56:00,
2013-09-08 21:13:00,64.0,62.2,29.88,NE,45,0.0,-999.0,94,-99.99,,,0.00,Acu-Link.com,2013-09-09 01:13:00,
2013-09-08 21:28:00,63.5,62.0,29.89,ENE,67,0.0,-999.0,95,-99.99,,,0.00,Acu-Link.com,2013-09-09 01:28:00,
2013-09-08 21:43:00,63.5,62.0,29.89,NE,45,0.0,-999.0,95,-99.99,,,0.00,Acu-Link.com,2013-09-09 01:43:00,
2013-09-08 21:58:00,63.3,62.1,29.89,East,90,0.0,-999.0,96,-99.99,,,0.00,Acu-Link.com,2013-09-09 01:58:00,
2013-09-08 22:13:00,63.0,61.8,29.90,ENE,67,0.0,-999.0,96,-99.99,,,0.00,Acu-Link.com,2013-09-09 02:13:00,
2013-09-08 22:30:00,62.8,61.6,29.90,ENE,67,0.0,-999.0,96,-99.99,,,0.00,Acu-Link.com,2013-09-09 02:30:00,
2013-09-08 22:46:00,62.4,61.5,29.90,ENE,67,0.0,-999.0,97,-99.99,,,0.00,Acu-Link.com,2013-09-09 02:46:00,
2013-09-08 23:01:00,62.4,61.5,29.91,ENE,67,0.0,-999.0,97,-99.99,,,0.00,Acu-Link.com,2013-09-09 03:01:00,
2013-09-08 23:16:00,62.2,61.3,29.91,ENE,67,0.0,-999.0,97,-99.99,,,0.00,Acu-Link.com,2013-09-09 03:16:00,
2013-09-08 23:32:00,62.2,61.3,29.92,ENE,67,0.0,-999.0,97,-99.99,,,0.00,Acu-Link.com,2013-09-09 03:32:00,
2013-09-08 23:47:00,62.2,61.3,29.91,ENE,67,0.0,-999.0,97,-99.99,,,0.00,Acu-Link.com,2013-09-09 03:47:00,